createdAt,value
2019-03-29T00:01:28.619Z,103011.91
2019-03-29T00:04:00.968Z,103005.73
2019-03-29T00:06:32.713Z,103003.05
2019-03-29T00:09:05.332Z,103003.95
2019-03-29T00:11:48.389Z,103006.60
2019-03-29T00:14:23.292Z,103000.38
2019-03-29T00:16:53.468Z,102999.92
2019-03-29T00:19:24.124Z,102997.20
2019-03-29T00:21:54.894Z,102992.30
2019-03-29T00:24:25.606Z,102990.57
2019-03-29T00:26:56.393Z,102987.47
2019-03-29T00:29:27.098Z,102985.70
2019-03-29T00:31:57.804Z,102985.30
2019-03-29T00:34:28.494Z,102980.86
2019-03-29T00:37:03.080Z,102977.31
2019-03-29T00:39:33.927Z,102979.53
2019-03-29T00:42:04.869Z,102982.19
2019-03-29T00:44:35.522Z,102976.02
2019-03-29T00:47:06.289Z,102970.71
2019-03-29T00:49:37.016Z,102966.73
2019-03-29T00:52:07.754Z,102963.15
2019-03-29T00:54:38.643Z,102963.55
2019-03-29T00:57:09.301Z,102964.41
2019-03-29T00:59:40.199Z,102963.08
2019-03-29T01:02:11.494Z,102955.13
2019-03-29T01:04:43.286Z,102955.13
2019-03-29T01:07:13.977Z,102960.90
2019-03-29T01:09:45.707Z,102964.89
2019-03-29T01:12:16.423Z,102955.16
2019-03-29T01:14:51.657Z,102949.44
2019-03-29T01:17:22.434Z,102958.25
2019-03-29T01:19:53.164Z,102956.44
2019-03-29T01:22:23.896Z,102956.84
2019-03-29T01:24:55.316Z,102958.19
2019-03-29T01:27:26.128Z,102956.86
2019-03-29T01:29:56.956Z,102952.45
2019-03-29T01:32:28.105Z,102945.83
2019-03-29T01:34:58.869Z,102945.37
2019-03-29T01:37:30.640Z,102948.94
2019-03-29T01:40:01.509Z,102946.70
2019-03-29T01:42:32.302Z,102949.36
2019-03-29T01:45:03.047Z,102947.17
2019-03-29T01:47:33.902Z,102946.23
2019-03-29T01:50:04.880Z,102943.59
2019-03-29T01:52:35.620Z,102942.27
2019-03-29T01:55:07.061Z,102938.21
2019-03-29T01:57:37.785Z,102933.38
2019-03-29T02:00:09.569Z,102937.79
2019-03-29T02:02:40.357Z,102943.55
2019-03-29T02:05:11.142Z,102944.38
2019-03-29T02:07:42.775Z,102939.92
2019-03-29T02:10:13.637Z,102938.18
2019-03-29T02:12:44.575Z,102939.03
2019-03-29T02:15:15.342Z,102941.62
2019-03-29T02:17:46.041Z,102937.23
2019-03-29T02:20:16.861Z,102931.05
2019-03-29T02:22:50.059Z,102929.28
2019-03-29T02:25:20.784Z,102923.11
2019-03-29T02:27:52.276Z,102924.44
2019-03-29T02:30:23.778Z,102915.15
2019-03-29T02:32:54.470Z,102918.22
2019-03-29T02:35:25.251Z,102915.15
2019-03-29T02:37:56.645Z,102918.22
2019-03-29T02:40:27.685Z,102911.59
2019-03-29T02:42:58.436Z,102914.25
2019-03-29T02:45:30.490Z,102908.91
2019-03-29T02:48:01.500Z,102907.58
2019-03-29T02:50:32.349Z,102906.27
2019-03-29T02:53:03.032Z,102906.72
2019-03-29T02:55:33.802Z,102909.36
2019-03-29T02:58:04.518Z,102907.58
2019-03-29T03:00:35.249Z,102912.44
2019-03-29T03:03:06.036Z,102898.75
2019-03-29T03:05:36.738Z,102911.11
2019-03-29T03:08:07.451Z,102909.34
2019-03-29T03:10:38.187Z,102907.95
2019-03-29T03:13:08.970Z,102905.77
2019-03-29T03:15:39.852Z,102908.42
2019-03-29T03:18:10.562Z,102908.02
2019-03-29T03:20:41.334Z,102901.81
2019-03-29T03:23:12.196Z,102896.52
2019-03-29T03:25:42.913Z,102896.98
2019-03-29T03:28:13.657Z,102902.75
2019-03-29T03:30:44.396Z,102896.56
2019-03-29T03:33:15.173Z,102896.09
2019-03-29T03:35:45.898Z,102895.19
2019-03-29T03:38:16.764Z,102893.84
2019-03-29T03:40:47.501Z,102897.34
2019-03-29T03:43:18.174Z,102895.99
2019-03-29T03:45:48.812Z,102890.67
2019-03-29T03:48:19.516Z,102892.84
2019-03-29T03:50:50.710Z,102887.52
2019-03-29T03:53:21.418Z,102883.81
2019-03-29T03:55:54.789Z,102879.59
2019-03-29T03:58:28.077Z,102876.59
2019-03-29T04:01:01.245Z,102875.80
2019-03-29T04:03:31.983Z,102888.63
2019-03-29T04:06:02.835Z,102891.17
2019-03-29T04:08:33.675Z,102888.11
2019-03-29T04:11:04.402Z,102888.11
2019-03-29T04:13:35.170Z,102891.53
2019-03-29T04:16:05.851Z,102890.68
2019-03-29T04:18:36.573Z,102880.98
2019-03-29T04:21:08.392Z,102880.09
2019-03-29T04:23:39.192Z,102875.20
2019-03-29T04:26:09.946Z,102876.43
2019-03-29T04:28:42.367Z,102878.17
2019-03-29T04:31:13.034Z,102879.03
2019-03-29T04:33:50.367Z,102881.66
2019-03-29T04:36:23.128Z,102881.20
2019-03-29T04:38:55.515Z,102878.00
2019-03-29T04:41:28.753Z,102883.69
2019-03-29T04:43:58.635Z,102885.83
2019-03-29T04:46:29.379Z,102884.34
2019-03-29T04:49:00.225Z,102878.52
2019-03-29T04:51:31.039Z,102892.52
2019-03-29T04:54:03.889Z,102890.59
2019-03-29T04:56:34.592Z,102885.22
2019-03-29T04:59:05.378Z,102885.07
2019-03-29T05:01:36.181Z,102886.31
2019-03-29T05:04:06.935Z,102882.24
2019-03-29T05:06:39.467Z,102883.05
2019-03-29T05:09:11.276Z,102886.89
2019-03-29T05:11:42.033Z,102885.56
2019-03-29T05:14:12.812Z,102885.88
2019-03-29T05:16:43.549Z,102890.64
2019-03-29T05:19:16.351Z,102890.97
2019-03-29T05:21:47.061Z,102885.50
2019-03-29T05:24:17.819Z,102883.33
2019-03-29T05:26:48.551Z,102883.28
2019-03-29T05:29:19.280Z,102886.78
2019-03-29T05:31:53.674Z,102886.26
2019-03-29T05:34:24.234Z,102886.70
2019-03-29T05:36:58.204Z,102887.11
2019-03-29T05:39:27.338Z,102880.97
2019-03-29T05:41:58.092Z,102887.20
2019-03-29T05:44:28.894Z,102890.36
2019-03-29T05:46:59.763Z,102885.97
2019-03-29T05:49:30.523Z,102887.37
2019-03-29T05:52:01.403Z,102886.16
2019-03-29T05:54:32.983Z,102891.52
2019-03-29T05:57:03.773Z,102887.66
2019-03-29T05:59:34.613Z,102892.08
2019-03-29T06:02:05.407Z,102877.94
2019-03-29T06:04:36.199Z,102875.30
2019-03-29T06:07:06.995Z,102873.97
2019-03-29T06:09:37.747Z,102880.14
2019-03-29T06:12:08.477Z,102886.78
2019-03-29T06:14:39.239Z,102881.55
2019-03-29T06:17:09.941Z,102882.45
2019-03-29T06:19:40.806Z,102884.67
2019-03-29T06:22:13.929Z,102880.34
2019-03-29T06:24:44.654Z,102877.33
2019-03-29T06:27:15.336Z,102879.14
2019-03-29T06:29:46.221Z,102881.38
2019-03-29T06:32:16.906Z,102884.97
2019-03-29T06:34:47.679Z,102879.72
2019-03-29T06:37:21.570Z,102878.05
2019-03-29T06:39:54.593Z,102876.76
2019-03-29T06:42:25.995Z,102880.38
2019-03-29T06:44:56.867Z,102880.89
2019-03-29T06:47:28.194Z,102881.83
2019-03-29T06:49:59.971Z,102870.84
2019-03-29T06:52:33.690Z,102879.33
2019-03-29T06:55:04.675Z,102878.52
2019-03-29T06:57:35.367Z,102881.66
2019-03-29T07:00:06.627Z,102873.76
2019-03-29T07:02:37.808Z,102875.97
2019-03-29T07:05:08.661Z,102876.08
2019-03-29T07:07:39.345Z,102879.23
2019-03-29T07:10:11.168Z,102872.61
2019-03-29T07:12:42.087Z,102877.59
2019-03-29T07:15:12.910Z,102874.11
2019-03-29T07:17:43.556Z,102868.88
2019-03-29T07:20:14.299Z,102868.94
2019-03-29T07:22:47.598Z,102868.58
2019-03-29T07:25:18.431Z,102873.45
2019-03-29T07:27:52.375Z,102869.12
2019-03-29T07:30:23.166Z,102873.64
2019-03-29T07:32:53.897Z,102869.27
2019-03-29T07:35:24.666Z,102869.38
2019-03-29T07:37:55.421Z,102864.57
2019-03-29T07:40:26.256Z,102861.02
2019-03-29T07:42:57.143Z,102859.30
2019-03-29T07:45:28.047Z,102862.95
2019-03-29T07:47:58.863Z,102858.10
2019-03-29T07:50:29.775Z,102859.92
2019-03-29T07:53:00.730Z,102859.97
2019-03-29T07:55:31.453Z,102858.28
2019-03-29T07:58:02.309Z,102860.58
2019-03-29T08:00:33.083Z,102858.00
2019-03-29T08:03:03.712Z,102860.30
2019-03-29T08:05:35.449Z,102862.12
2019-03-29T08:08:06.398Z,102852.84
2019-03-29T08:10:37.627Z,102856.08
2019-03-29T08:13:08.418Z,102852.16
2019-03-29T08:15:39.125Z,102856.56
2019-03-29T08:18:09.854Z,102845.95
2019-03-29T08:20:44.141Z,102852.18
2019-03-29T08:23:12.990Z,102836.80
2019-03-29T08:25:46.078Z,102832.92
2019-03-29T08:28:16.814Z,102829.95
2019-03-29T08:30:47.524Z,102826.90
2019-03-29T08:33:18.228Z,102830.02
2019-03-29T08:35:48.998Z,102820.71
2019-03-29T08:38:19.726Z,102822.09
2019-03-29T08:40:50.382Z,102822.59
2019-03-29T08:43:21.072Z,102824.38
2019-03-29T08:45:51.834Z,102822.59
2019-03-29T08:48:22.551Z,102818.61
2019-03-29T08:50:53.330Z,102819.97
2019-03-29T08:53:27.320Z,102816.44
2019-03-29T08:55:56.392Z,102818.67
2019-03-29T08:58:27.090Z,102816.49
2019-03-29T09:00:57.772Z,102824.48
2019-03-29T09:03:28.546Z,102814.73
2019-03-29T09:05:59.544Z,102812.98
2019-03-29T09:08:31.024Z,102813.84
2019-03-29T09:11:03.435Z,102808.94
2019-03-29T09:13:34.526Z,102804.08
2019-03-29T09:16:05.267Z,102809.44
2019-03-29T09:18:36.022Z,102805.87
2019-03-29T09:21:06.692Z,102799.19
2019-03-29T09:23:37.496Z,102800.53
2019-03-29T09:26:09.396Z,102799.19
2019-03-29T09:28:40.172Z,102791.63
2019-03-29T09:31:12.089Z,102789.86
2019-03-29T09:33:42.777Z,102787.62
2019-03-29T09:36:14.471Z,102786.33
2019-03-29T09:38:45.364Z,102789.86
2019-03-29T09:41:16.145Z,102790.74
2019-03-29T09:43:46.884Z,102780.09
2019-03-29T09:46:17.553Z,102777.00
2019-03-29T09:48:48.332Z,102776.55
2019-03-29T09:51:19.032Z,102773.88
2019-03-29T09:53:49.814Z,102776.98
2019-03-29T09:56:20.465Z,102776.99
2019-03-29T09:58:51.189Z,102771.63
2019-03-29T10:01:22.042Z,102768.95
2019-03-29T10:03:53.037Z,102762.70
2019-03-29T10:06:23.711Z,102765.76
2019-03-29T10:08:55.486Z,102759.08
2019-03-29T10:11:26.275Z,102758.60
2019-03-29T10:13:58.774Z,102751.44
2019-03-29T10:16:29.433Z,102757.21
2019-03-29T10:19:00.161Z,102753.62
2019-03-29T10:21:33.958Z,102751.38
2019-03-29T10:24:03.261Z,102747.38
2019-03-29T10:26:33.988Z,102747.44
2019-03-29T10:29:04.690Z,102744.36
2019-03-29T10:31:35.379Z,102737.27
2019-03-29T10:34:06.114Z,102735.87
2019-03-29T10:36:36.820Z,102733.09
2019-03-29T10:39:12.470Z,102719.25
2019-03-29T10:41:43.201Z,102717.43
2019-03-29T10:44:13.962Z,102705.38
2019-03-29T10:46:44.621Z,102713.38
2019-03-29T10:49:15.355Z,102712.48
2019-03-29T10:51:46.270Z,102703.12
2019-03-29T10:54:17.052Z,102700.00
2019-03-29T10:56:49.407Z,102696.06
2019-03-29T10:59:27.367Z,102691.28
2019-03-29T11:01:52.646Z,102688.28
2019-03-29T11:04:23.419Z,102681.15
2019-03-29T11:06:54.101Z,102678.36
2019-03-29T11:09:24.809Z,102669.43
2019-03-29T11:11:55.473Z,102672.05
2019-03-29T11:14:26.182Z,102664.95
2019-03-29T11:16:56.852Z,102665.46
2019-03-29T11:19:27.661Z,102661.52
2019-03-29T11:21:59.125Z,102659.34
2019-03-29T11:24:29.910Z,102661.92
2019-03-29T11:27:00.563Z,102655.23
2019-03-29T11:29:32.561Z,102653.41
2019-03-29T11:32:03.395Z,102652.95
2019-03-29T11:34:34.223Z,102642.87
2019-03-29T11:37:04.903Z,102653.52
2019-03-29T11:39:35.892Z,102640.58
2019-03-29T11:42:06.702Z,102637.88
2019-03-29T11:44:37.448Z,102634.19
2019-03-29T11:47:08.123Z,102629.73
2019-03-29T11:49:38.873Z,102617.78
2019-03-29T11:52:10.655Z,102618.28
2019-03-29T11:54:41.434Z,102611.50
2019-03-29T11:57:12.236Z,102604.34
2019-03-29T11:59:42.987Z,102607.46
2019-03-29T12:02:14.158Z,102604.33
2019-03-29T12:04:44.865Z,102599.91
2019-03-29T12:07:15.643Z,102601.72
2019-03-29T12:09:47.532Z,102593.59
2019-03-29T12:12:18.926Z,102591.41
2019-03-29T12:14:49.680Z,102580.28
2019-03-29T12:17:21.447Z,102575.34
2019-03-29T12:19:55.384Z,102578.07
2019-03-29T12:22:26.087Z,102570.94
2019-03-29T12:24:56.936Z,102565.64
2019-03-29T12:27:27.658Z,102570.45
2019-03-29T12:29:58.398Z,102564.06
2019-03-29T12:32:29.151Z,102568.00
2019-03-29T12:34:59.922Z,102560.58
2019-03-29T12:37:30.637Z,102560.55
2019-03-29T12:40:01.400Z,102552.11
2019-03-29T12:42:32.321Z,102551.18
2019-03-29T12:45:03.007Z,102551.22
2019-03-29T12:47:34.105Z,102543.62
2019-03-29T12:50:05.223Z,102541.83
2019-03-29T12:52:36.110Z,102539.09
2019-03-29T12:55:14.990Z,102534.12
2019-03-29T12:57:45.844Z,102526.58
2019-03-29T13:00:16.915Z,102530.05
2019-03-29T13:02:51.716Z,102526.88
2019-03-29T13:05:24.345Z,102520.14
2019-03-29T13:07:55.736Z,102517.45
2019-03-29T13:10:26.856Z,102507.71
2019-03-29T13:13:00.546Z,102507.23
2019-03-29T13:15:30.630Z,102504.92
2019-03-29T13:18:01.331Z,102504.05
2019-03-29T13:20:32.054Z,102495.71
2019-03-29T13:23:02.828Z,102492.67
2019-03-29T13:25:33.688Z,102489.52
2019-03-29T13:28:07.781Z,102487.28
2019-03-29T13:30:38.621Z,102479.78
2019-03-29T13:33:09.453Z,102476.94
2019-03-29T13:35:40.196Z,102476.29
2019-03-29T13:38:10.918Z,102471.41
2019-03-29T13:40:41.650Z,102466.83
2019-03-29T13:43:13.550Z,102465.01
2019-03-29T13:45:44.702Z,102459.33
2019-03-29T13:48:15.474Z,102455.27
2019-03-29T13:50:46.190Z,102453.94
2019-03-29T13:53:16.979Z,102445.84
2019-03-29T13:55:47.754Z,102445.84
2019-03-29T13:58:19.204Z,102432.28
2019-03-29T14:00:50.305Z,102433.13
2019-03-29T14:03:24.582Z,102428.73
2019-03-29T14:05:55.963Z,102427.41
2019-03-29T14:08:30.205Z,102424.98
2019-03-29T14:11:04.097Z,102419.98
2019-03-29T14:13:35.398Z,102417.23
2019-03-29T14:16:06.209Z,102411.86
2019-03-29T14:18:37.514Z,102411.83
2019-03-29T14:21:08.202Z,102405.47
2019-03-29T14:23:39.332Z,102401.87
2019-03-29T14:26:10.146Z,102400.01
2019-03-29T14:28:41.337Z,102402.33
2019-03-29T14:31:12.079Z,102392.94
2019-03-29T14:33:42.861Z,102399.95
2019-03-29T14:36:13.682Z,102395.41
2019-03-29T14:38:44.358Z,102394.04
2019-03-29T14:41:15.034Z,102394.01
2019-03-29T14:43:45.858Z,102392.58
2019-03-29T14:46:16.562Z,102389.81
2019-03-29T14:48:47.451Z,102389.41
2019-03-29T14:51:18.235Z,102382.19
2019-03-29T14:53:49.043Z,102376.44
2019-03-29T14:56:19.791Z,102376.50
2019-03-29T14:58:50.629Z,102375.17
2019-03-29T15:01:21.361Z,102377.34
2019-03-29T15:03:55.306Z,102380.26
2019-03-29T15:06:26.149Z,102376.52
2019-03-29T15:09:00.473Z,102374.23
2019-03-29T15:11:32.815Z,102376.08
2019-03-29T15:14:03.656Z,102365.37
2019-03-29T15:16:34.360Z,102363.61
2019-03-29T15:19:05.149Z,102359.96
2019-03-29T15:21:36.010Z,102350.92
2019-03-29T15:24:11.917Z,102349.59
2019-03-29T15:26:54.046Z,102348.75
2019-03-29T15:29:25.557Z,102340.98
2019-03-29T15:31:56.305Z,102336.75
2019-03-29T15:34:27.148Z,102328.33
2019-03-29T15:36:57.869Z,102331.61
2019-03-29T15:39:28.586Z,102330.09
2019-03-29T15:41:59.678Z,102327.45
2019-03-29T15:44:32.767Z,102327.05
2019-03-29T15:47:03.594Z,102316.58
2019-03-29T15:49:35.493Z,102312.33
2019-03-29T15:52:14.332Z,102312.68
2019-03-29T15:54:46.774Z,102307.59
2019-03-29T15:57:21.264Z,102307.30
2019-03-29T15:59:52.229Z,102303.23
2019-03-29T16:02:23.074Z,102299.80
2019-03-29T16:04:53.977Z,102292.28
2019-03-29T16:07:25.324Z,102284.06
2019-03-29T16:09:58.436Z,102286.73
2019-03-29T16:12:35.538Z,102288.61
2019-03-29T16:15:08.443Z,102284.10
2019-03-29T16:17:39.269Z,102281.60
2019-03-29T16:20:22.554Z,102278.48
2019-03-29T16:22:55.968Z,102272.17
2019-03-29T16:25:28.295Z,102274.88
2019-03-29T16:28:02.812Z,102274.09
2019-03-29T16:30:35.538Z,102271.17
2019-03-29T16:33:13.558Z,102264.27
2019-03-29T16:36:08.823Z,102257.44
2019-03-29T16:38:48.762Z,102247.77
2019-03-29T16:41:25.749Z,102254.16
2019-03-29T16:43:57.835Z,102243.27
2019-03-29T16:46:46.260Z,102246.59
2019-03-29T16:49:20.426Z,102245.55
2019-03-29T16:51:54.838Z,102252.17
2019-03-29T16:54:30.520Z,102244.56
2019-03-29T16:57:01.554Z,102249.07
2019-03-29T16:59:34.859Z,102244.09
2019-03-29T17:02:07.640Z,102245.91
2019-03-29T17:04:38.680Z,102241.68
2019-03-29T17:07:09.582Z,102236.80
2019-03-29T17:09:45.772Z,102237.16
2019-03-29T17:12:18.794Z,102231.36
2019-03-29T17:14:51.848Z,102239.63
2019-03-29T17:17:25.344Z,102238.34
2019-03-29T17:20:00.660Z,102236.31
2019-03-29T17:22:31.816Z,102236.40
2019-03-29T17:25:03.175Z,102233.59
2019-03-29T17:27:35.056Z,102237.08
2019-03-29T17:30:07.011Z,102236.30
2019-03-29T17:32:40.540Z,102244.01
2019-03-29T17:35:14.620Z,102243.19
2019-03-29T17:37:45.247Z,102243.97
2019-03-29T17:40:15.982Z,102246.08
2019-03-29T17:42:51.916Z,102247.67
2019-03-29T17:45:27.146Z,102243.17
2019-03-29T17:48:01.449Z,102243.34
2019-03-29T17:50:33.588Z,102246.72
2019-03-29T17:53:06.326Z,102245.58
2019-03-29T17:55:37.400Z,102241.34
2019-03-29T17:58:09.877Z,102245.55
2019-03-29T18:00:41.555Z,102252.37
2019-03-29T18:03:29.307Z,102247.20
2019-03-29T18:06:05.414Z,102250.91
2019-03-29T18:08:42.176Z,102251.06
2019-03-29T18:11:20.690Z,102251.65
2019-03-29T18:13:59.067Z,102249.97
2019-03-29T18:16:33.146Z,102253.20
2019-03-29T18:19:04.877Z,102253.28
2019-03-29T18:21:40.505Z,102253.39
2019-03-29T18:24:13.533Z,102261.00
2019-03-29T18:26:44.675Z,102261.95
2019-03-29T18:29:16.185Z,102264.27
2019-03-29T18:31:52.067Z,102270.98
2019-03-29T18:34:23.326Z,102264.39
2019-03-29T18:37:03.204Z,102265.78
2019-03-29T18:39:37.607Z,102265.41
2019-03-29T18:42:11.923Z,102264.99
2019-03-29T18:44:45.688Z,102258.41
2019-03-29T18:47:17.693Z,102257.13
2019-03-29T18:50:00.484Z,102261.16
2019-03-29T18:52:33.742Z,102259.88
2019-03-29T18:55:05.701Z,102261.69
2019-03-29T18:57:38.017Z,102263.95
2019-03-29T19:00:09.546Z,102260.90
2019-03-29T19:02:47.069Z,102259.16
2019-03-29T19:05:32.734Z,102256.05
2019-03-29T19:08:04.651Z,102258.78
2019-03-29T19:10:35.568Z,102258.34
2019-03-29T19:13:09.479Z,102261.90
2019-03-29T19:15:40.519Z,102258.83
2019-03-29T19:18:12.188Z,102256.16
2019-03-29T19:20:45.011Z,102262.80
2019-03-29T19:23:18.526Z,102261.52
2019-03-29T19:25:51.184Z,102261.50
2019-03-29T19:28:27.379Z,102258.89
2019-03-29T19:30:58.365Z,102256.23
2019-03-29T19:33:38.009Z,102262.44
2019-03-29T19:36:23.285Z,102258.48
2019-03-29T19:38:56.574Z,102261.59
2019-03-29T19:41:36.945Z,102260.28
2019-03-29T19:44:08.123Z,102257.19
2019-03-29T19:46:38.969Z,102259.83
2019-03-29T19:49:10.397Z,102255.41
2019-03-29T19:51:47.686Z,102254.55
2019-03-29T19:54:20.718Z,102256.75
2019-03-29T19:56:51.729Z,102246.59
2019-03-29T19:59:22.841Z,102247.03
2019-03-29T20:01:59.278Z,102251.02
2019-03-29T20:04:30.749Z,102247.03
2019-03-29T20:07:06.493Z,102250.57
2019-03-29T20:09:49.134Z,102245.27
2019-03-29T20:12:28.927Z,102239.95
2019-03-29T20:15:01.788Z,102250.12
2019-03-29T20:17:33.013Z,102249.25
2019-03-29T20:20:04.806Z,102240.84
2019-03-29T20:22:59.976Z,102247.45
2019-03-29T20:25:45.527Z,102238.59
2019-03-29T20:28:38.951Z,102241.26
2019-03-29T20:31:45.823Z,102239.94
2019-03-29T20:34:25.248Z,102236.38
2019-03-29T20:37:15.770Z,102238.13
2019-03-29T20:39:48.013Z,102233.73
2019-03-29T20:42:19.272Z,102226.66
2019-03-29T20:44:50.716Z,102234.58
2019-03-29T20:47:25.842Z,102232.77
2019-03-29T20:49:57.789Z,102226.14
2019-03-29T20:52:29.129Z,102225.23
2019-03-29T20:55:00.814Z,102230.95
2019-03-29T20:57:33.685Z,102226.10
2019-03-29T21:00:08.612Z,102232.73
2019-03-29T21:02:41.833Z,102230.04
2019-03-29T21:05:16.179Z,102229.58
2019-03-29T21:07:54.788Z,102230.45
2019-03-29T21:10:33.525Z,102228.67
2019-03-29T21:13:21.878Z,102237.06
2019-03-29T21:15:54.070Z,102235.28
2019-03-29T21:19:05.999Z,102233.95
2019-03-29T21:21:40.089Z,102234.77
2019-03-29T21:25:55.676Z,102230.80
2019-03-29T21:30:48.569Z,102230.28
2019-03-29T21:33:19.480Z,102223.66
2019-03-29T21:35:50.670Z,102230.27
2019-03-29T21:38:21.640Z,102220.53
2019-03-29T21:40:55.217Z,102223.17
2019-03-29T21:43:27.822Z,102223.58
2019-03-29T21:45:59.164Z,102222.23
2019-03-29T21:48:30.458Z,102217.80
2019-03-29T21:51:02.040Z,102217.34
2019-03-29T21:53:34.015Z,102216.01
2019-03-29T21:56:06.473Z,102215.95
2019-03-29T21:58:39.026Z,102212.42
2019-03-29T22:01:09.852Z,102212.41
2019-03-29T22:03:44.485Z,102210.09
2019-03-29T22:06:15.332Z,102208.75
2019-03-29T22:08:46.258Z,102213.20
2019-03-29T22:11:18.090Z,102206.51
2019-03-29T22:13:48.907Z,102213.59
2019-03-29T22:16:19.704Z,102210.53
2019-03-29T22:18:53.714Z,102200.80
2019-03-29T22:21:24.578Z,102208.69
2019-03-29T22:23:55.336Z,102208.26
2019-03-29T22:26:27.141Z,102213.50
2019-03-29T22:28:57.883Z,102208.19
2019-03-29T22:31:31.790Z,102206.80
2019-03-29T22:34:02.580Z,102195.34
2019-03-29T22:36:33.358Z,102203.27
2019-03-29T22:39:06.446Z,102204.56
2019-03-29T22:41:38.407Z,102199.23
2019-03-29T22:44:09.308Z,102194.38
2019-03-29T22:46:40.029Z,102191.27
2019-03-29T22:49:10.848Z,102195.22
2019-03-29T22:51:41.641Z,102187.23
2019-03-29T22:54:12.446Z,102183.24
2019-03-29T22:56:47.456Z,102186.73
2019-03-29T22:59:19.240Z,102186.73
2019-03-29T23:02:19.612Z,102185.84
2019-03-29T23:04:57.561Z,102181.41
2019-03-29T23:07:36.783Z,102176.95
2019-03-29T23:10:08.723Z,102177.81
2019-03-29T23:13:09.989Z,102180.82
2019-03-29T23:16:37.357Z,102179.92
2019-03-29T23:19:54.863Z,102182.10
2019-03-29T23:25:16.408Z,102179.84
2019-03-29T23:28:13.308Z,102176.25
2019-03-29T23:31:09.455Z,102170.95
2019-03-29T23:37:22.882Z,102170.46
2019-03-29T23:40:14.126Z,102163.81
2019-03-29T23:43:14.084Z,102161.56
2019-03-29T23:45:44.535Z,102153.61
2019-03-29T23:48:27.666Z,102156.66
2019-03-29T23:51:21.381Z,102146.06
2019-03-29T23:54:06.180Z,102151.33
2019-03-29T23:56:45.787Z,102148.22
2019-03-29T23:59:26.707Z,102142.05
